EmailTwitter


Surface observations / United Kingdom / EGUB (03658)

Regions: Quebec | Canada | USA | Europe | France | UK | Elsewhere
Station
Display
Info & Location for EGUB (03658) | Help decoding METAR

Weather Conditions observed on 2020/10/24 at 13:50 UTC at BENSON RAF, UK (EGUB)

Temperature: 14.0 Celsius.

Dewpoint: 14.0 Celsius.

Relative Humidity: 100%

Windchill Factor: 12.

Winds: South at 30 km/h or 16 knots.

Mean Sea level Pressure: 99.70 kilopascals.

Coded METAR:

EGUB 241350Z AUTO 18016KT //// // ///////// 14/14 Q0997=